Time;durP1;ratioP1;P1;durP2;ratioP2;P2;SDS_P1;SDS_P2;PMS_P1;PMS_P2;Temp;Humidity;BMP_temperature;BMP_pressure;BME280_temperature;BME280_humidity;BME280_pressure;Samples;Min_cycle;Max_cycle;Signal;HPM_P1;HPM_P2
2023/12/18 00:01:38;;;;;;;82.38;50.10;;;4.30;99.90;;;;;;4897913;29;20039;-50
2023/12/18 00:04:06;;;;;;;96.15;53.42;;;4.30;99.90;;;;;;4934293;29;20047;-50
2023/12/18 00:06:31;;;;;;;151.00;70.53;;;4.50;99.90;;;;;;4957329;29;20027;-50
2023/12/18 00:08:57;;;;;;;165.02;79.43;;;4.50;99.90;;;;;;4891804;29;20126;-49
2023/12/18 00:11:23;;;;;;;203.85;92.82;;;4.50;99.90;;;;;;4957140;29;20031;-50
2023/12/18 00:13:48;;;;;;;217.43;100.10;;;4.70;99.90;;;;;;4956976;29;20503;-49
2023/12/18 00:16:14;;;;;;;301.45;134.40;;;4.50;99.90;;;;;;4957142;29;20023;-49
2023/12/18 00:18:40;;;;;;;189.40;101.93;;;4.50;99.90;;;;;;4907675;29;20403;-50
2023/12/18 00:21:06;;;;;;;165.55;92.03;;;4.40;99.90;;;;;;4956865;29;20031;-49
2023/12/18 00:23:32;;;;;;;113.07;60.55;;;4.00;99.90;;;;;;4957312;29;20110;-50
2023/12/18 00:25:57;;;;;;;60.85;41.40;;;4.00;99.90;;;;;;4957218;29;20460;-49
2023/12/18 00:28:23;;;;;;;47.20;33.63;;;3.50;99.90;;;;;;4956918;29;20098;-50
2023/12/18 00:30:49;;;;;;;48.95;31.55;;;;;;;;;;4956938;29;20131;-50
2023/12/18 00:33:15;;;;;;;47.10;34.60;;;2.60;99.90;;;;;;4956914;29;20552;-49
2023/12/18 00:35:40;;;;;;;47.08;33.28;;;2.40;99.90;;;;;;4952805;29;20027;-51
2023/12/18 00:38:06;;;;;;;42.65;30.40;;;2.30;99.90;;;;;;4937542;29;20055;-50
2023/12/18 00:40:32;;;;;;;51.17;33.55;;;2.10;99.90;;;;;;4888345;29;20035;-49
2023/12/18 00:42:58;;;;;;;50.78;33.22;;;1.90;99.90;;;;;;4937380;29;20051;-50
2023/12/18 00:45:23;;;;;;;59.03;37.28;;;1.70;99.90;;;;;;4935408;29;20099;-49
2023/12/18 00:47:49;;;;;;;64.75;42.38;;;1.80;99.90;;;;;;4888230;29;20035;-50
2023/12/18 00:50:15;;;;;;;57.00;40.08;;;1.70;99.90;;;;;;4935175;29;20036;-50
2023/12/18 00:52:41;;;;;;;56.90;38.50;;;1.90;99.90;;;;;;4937800;29;20122;-50
2023/12/18 00:55:07;;;;;;;53.10;35.67;;;;;;;;;;4937509;29;20031;-49
2023/12/18 00:57:34;;;;;;;40.60;27.42;;;;;;;;;;4937677;29;20375;-49
2023/12/18 01:00:00;;;;;;;45.20;30.30;;;3.20;99.90;;;;;;4937043;29;20511;-51
2023/12/18 01:02:26;;;;;;;46.97;30.92;;;3.20;99.90;;;;;;4937059;29;20034;-51
2023/12/18 01:04:52;;;;;;;50.70;34.50;;;3.40;99.90;;;;;;4937093;29;20023;-49
2023/12/18 01:07:17;;;;;;;44.88;31.30;;;3.60;99.90;;;;;;4936078;29;20046;-49
2023/12/18 01:09:43;;;;;;;40.60;28.88;;;;;;;;;;4937115;29;20016;-50
2023/12/18 01:12:09;;;;;;;40.03;28.25;;;4.10;99.90;;;;;;4888113;29;20118;-49
2023/12/18 01:14:35;;;;;;;52.28;31.60;;;4.00;99.90;;;;;;4936887;29;20103;-51
2023/12/18 01:17:01;;;;;;;48.72;31.73;;;3.70;99.90;;;;;;4936935;29;20039;-51
2023/12/18 01:19:27;;;;;;;33.67;25.65;;;3.40;99.90;;;;;;4936828;29;20098;-50
2023/12/18 01:21:52;;;;;;;37.88;27.33;;;3.30;99.90;;;;;;4887399;29;20040;-50
2023/12/18 01:24:18;;;;;;;38.35;28.40;;;3.50;99.90;;;;;;4936766;29;20038;-50
2023/12/18 01:26:44;;;;;;;35.72;25.90;;;3.60;99.90;;;;;;4936727;29;20039;-49
2023/12/18 01:29:10;;;;;;;36.67;23.73;;;3.80;99.90;;;;;;4934578;29;20087;-49
2023/12/18 01:31:36;;;;;;;27.70;20.98;;;3.90;99.90;;;;;;4887356;29;20035;-49
2023/12/18 01:34:01;;;;;;;26.02;18.45;;;3.90;99.90;;;;;;4887157;29;20032;-50
2023/12/18 01:36:27;;;;;;;28.92;19.83;;;3.90;99.90;;;;;;4936560;29;20558;-50
2023/12/18 01:38:53;;;;;;;26.48;19.45;;;4.00;99.90;;;;;;4934421;29;20130;-49
2023/12/18 01:41:19;;;;;;;28.65;21.42;;;4.10;99.90;;;;;;4887028;29;20052;-49
2023/12/18 01:43:46;;;;;;;26.45;20.02;;;4.00;99.90;;;;;;4936269;29;20030;-50
2023/12/18 01:46:17;;;;;;;26.77;19.67;;;;;;;;;;4936750;29;20511;-50
2023/12/18 01:48:44;;;;;;;21.45;16.92;;;;;;;;;;4936470;29;20036;-50
2023/12/18 01:51:09;;;;;;;26.50;20.40;;;3.70;99.90;;;;;;4936319;29;20054;-49
2023/12/18 01:53:47;;;;;;;23.20;17.33;;;3.50;99.90;;;;;;4936087;29;20472;-50
2023/12/18 01:56:15;;;;;;;23.63;16.92;;;3.50;99.90;;;;;;4936233;29;20396;-50
2023/12/18 01:58:45;;;;;;;23.92;16.45;;;3.70;99.90;;;;;;4935973;29;20048;-51
2023/12/18 02:01:11;;;;;;;21.98;16.00;;;3.80;99.90;;;;;;4936362;29;20031;-50
2023/12/18 02:03:39;;;;;;;25.58;18.33;;;3.70;99.90;;;;;;4936174;29;20039;-50
2023/12/18 02:06:06;;;;;;;24.05;18.60;;;3.30;99.90;;;;;;4936237;29;20031;-50
2023/12/18 02:08:32;;;;;;;27.33;19.30;;;3.00;99.90;;;;;;4935820;29;20032;-49
2023/12/18 02:10:59;;;;;;;25.15;19.42;;;2.80;99.90;;;;;;4936396;29;20032;-50
2023/12/18 02:13:26;;;;;;;27.60;20.25;;;2.70;99.90;;;;;;4936169;29;20036;-49
2023/12/18 02:15:52;;;;;;;27.90;20.20;;;2.70;99.90;;;;;;4886880;29;20044;-50
2023/12/18 02:18:18;;;;;;;28.42;19.35;;;2.90;99.90;;;;;;4885883;29;20054;-50
2023/12/18 02:20:44;;;;;;;29.05;21.00;;;3.20;99.90;;;;;;4935041;29;20135;-50
2023/12/18 02:23:10;;;;;;;28.95;21.13;;;3.30;99.90;;;;;;4947760;29;20146;-49
2023/12/18 02:25:36;;;;;;;28.73;21.52;;;3.50;99.90;;;;;;4954748;29;20486;-50
2023/12/18 02:28:04;;;;;;;29.65;20.95;;;3.60;99.90;;;;;;4955115;29;20459;-50
2023/12/18 02:30:32;;;;;;;28.88;20.70;;;;;;;;;;4905078;29;20043;-50
2023/12/18 02:32:58;;;;;;;25.33;17.73;;;3.80;99.90;;;;;;4954650;29;20035;-50
2023/12/18 02:35:24;;;;;;;26.48;19.48;;;3.80;99.90;;;;;;4905160;29;20039;-50
2023/12/18 02:37:50;;;;;;;26.15;19.17;;;3.30;99.90;;;;;;4954793;29;20035;-49
2023/12/18 02:40:16;;;;;;;37.33;26.40;;;;;;;;;;4952534;29;20387;-49
2023/12/18 02:42:42;;;;;;;59.00;44.70;;;;;;;;;;4952271;29;20491;-51
2023/12/18 02:45:09;;;;;;;33.33;23.65;;;2.80;99.90;;;;;;4905058;29;20035;-49
2023/12/18 02:47:35;;;;;;;29.48;22.02;;;;;;;;;;4952421;29;20043;-49
2023/12/18 02:50:01;;;;;;;29.40;20.90;;;3.50;99.90;;;;;;4954353;29;20035;-50
2023/12/18 02:52:27;;;;;;;27.02;20.15;;;3.40;99.90;;;;;;4954795;29;20050;-50
2023/12/18 02:54:52;;;;;;;23.08;16.80;;;3.50;99.90;;;;;;4954199;29;20483;-49
2023/12/18 02:57:18;;;;;;;23.55;16.75;;;;;;;;;;4954335;29;20113;-49
2023/12/18 02:59:44;;;;;;;21.10;15.75;;;;;;;;;;4953937;29;20054;-49
2023/12/18 03:02:10;;;;;;;23.73;15.75;;;4.00;99.90;;;;;;4954194;29;20118;-50
2023/12/18 03:04:42;;;;;;;23.00;16.60;;;3.90;99.90;;;;;;4954236;29;20106;-50
2023/12/18 03:07:09;;;;;;;23.85;16.63;;;3.90;99.90;;;;;;4954396;29;20101;-51
2023/12/18 03:09:35;;;;;;;26.75;16.90;;;4.00;99.90;;;;;;4894691;29;20032;-49
2023/12/18 03:12:01;;;;;;;21.60;15.60;;;4.00;99.90;;;;;;4894587;29;20036;-50
2023/12/18 03:14:27;;;;;;;27.05;16.42;;;4.00;99.90;;;;;;4879013;29;20128;-50
2023/12/18 03:16:52;;;;;;;23.58;16.15;;;4.00;99.90;;;;;;4894560;29;20029;-49
2023/12/18 03:19:18;;;;;;;28.17;16.95;;;4.00;99.90;;;;;;4894640;29;20055;-50
2023/12/18 03:21:45;;;;;;;22.38;16.52;;;4.10;99.90;;;;;;4894597;29;20035;-49
2023/12/18 03:24:11;;;;;;;23.98;18.45;;;4.10;99.90;;;;;;4894511;29;20060;-49
2023/12/18 03:26:36;;;;;;;24.02;16.42;;;4.20;99.90;;;;;;4894338;29;20033;-49
2023/12/18 03:29:02;;;;;;;24.75;16.67;;;4.10;99.90;;;;;;4895603;29;20043;-51
2023/12/18 03:31:28;;;;;;;21.25;15.88;;;4.10;99.90;;;;;;4894810;29;20564;-50
2023/12/18 03:33:54;;;;;;;24.08;16.52;;;4.10;99.90;;;;;;4877705;29;20033;-49
2023/12/18 03:36:20;;;;;;;25.80;17.33;;;4.10;99.90;;;;;;4875819;29;20525;-50
2023/12/18 03:38:46;;;;;;;23.27;17.02;;;4.10;99.90;;;;;;4875831;29;20137;-50
2023/12/18 03:41:12;;;;;;;26.38;17.05;;;4.20;99.90;;;;;;4921708;29;20122;-51
2023/12/18 03:43:37;;;;;;;23.95;17.15;;;4.10;99.90;;;;;;4932311;29;20075;-49
2023/12/18 03:46:04;;;;;;;24.10;16.83;;;4.10;99.90;;;;;;4932258;29;20507;-50
2023/12/18 03:48:30;;;;;;;26.23;17.17;;;4.20;99.90;;;;;;4934708;29;20039;-49
2023/12/18 03:50:55;;;;;;;28.88;18.38;;;4.10;99.90;;;;;;4934367;29;20384;-51
2023/12/18 03:53:21;;;;;;;29.25;20.63;;;4.00;99.90;;;;;;4934571;29;20036;-49
2023/12/18 03:55:47;;;;;;;29.05;19.92;;;3.90;99.90;;;;;;4934597;29;20062;-51
2023/12/18 03:58:13;;;;;;;32.50;20.92;;;3.90;99.90;;;;;;4916416;29;20043;-49
2023/12/18 04:00:38;;;;;;;35.75;20.48;;;4.00;99.90;;;;;;4934342;29;20142;-51
2023/12/18 04:03:04;;;;;;;31.58;21.27;;;3.80;99.90;;;;;;4932157;29;20095;-49
2023/12/18 04:05:30;;;;;;;30.42;21.95;;;4.00;99.90;;;;;;4900932;29;20090;-51
2023/12/18 04:07:56;;;;;;;32.90;22.30;;;4.00;99.90;;;;;;4934322;29;20032;-51
2023/12/18 04:10:22;;;;;;;30.77;22.58;;;4.10;99.90;;;;;;4934415;29;20032;-50
2023/12/18 04:12:47;;;;;;;54.13;25.48;;;4.10;99.90;;;;;;4934412;29;20032;-49
2023/12/18 04:15:13;;;;;;;37.45;23.70;;;4.10;99.90;;;;;;4934588;29;20035;-51
2023/12/18 04:17:39;;;;;;;39.38;22.55;;;4.10;99.90;;;;;;4934565;29;20020;-50
2023/12/18 04:20:05;;;;;;;38.67;22.40;;;4.20;99.90;;;;;;4934247;29;20476;-49
2023/12/18 04:22:32;;;;;;;47.92;21.73;;;4.20;99.90;;;;;;4934259;29;20044;-50
2023/12/18 04:24:58;;;;;;;28.55;19.60;;;4.20;99.90;;;;;;4931859;29;20110;-50
2023/12/18 04:27:24;;;;;;;25.02;18.63;;;4.20;99.90;;;;;;4934355;29;20028;-49
2023/12/18 04:29:50;;;;;;;27.00;19.08;;;4.30;99.90;;;;;;4934122;29;20395;-49
2023/12/18 04:32:15;;;;;;;25.75;17.73;;;4.20;99.90;;;;;;4934112;29;20024;-49
2023/12/18 04:34:44;;;;;;;26.02;17.80;;;4.20;99.90;;;;;;4934422;29;20032;-50
2023/12/18 04:37:10;;;;;;;28.55;18.38;;;4.30;99.90;;;;;;4933944;29;20028;-50
2023/12/18 04:39:36;;;;;;;28.92;19.63;;;4.20;99.90;;;;;;4934144;29;20027;-50
2023/12/18 04:42:02;;;;;;;25.52;18.20;;;4.30;99.90;;;;;;4934916;29;20035;-50
2023/12/18 04:44:28;;;;;;;27.02;19.08;;;4.20;99.90;;;;;;4903732;29;20135;-50
2023/12/18 04:46:54;;;;;;;32.17;21.15;;;4.20;99.90;;;;;;4919497;29;20123;-50
2023/12/18 04:49:20;;;;;;;28.23;18.98;;;4.20;99.90;;;;;;4937416;29;20538;-48
2023/12/18 04:51:47;;;;;;;25.50;18.70;;;4.10;99.90;;;;;;4937551;29;20036;-50
2023/12/18 04:54:13;;;;;;;31.52;20.63;;;4.10;99.90;;;;;;4937219;29;20066;-50
2023/12/18 04:56:40;;;;;;;23.55;16.58;;;4.10;99.90;;;;;;4935271;29;20032;-50
2023/12/18 04:59:06;;;;;;;24.50;18.30;;;4.20;99.90;;;;;;4937017;29;20103;-49
2023/12/18 05:01:32;;;;;;;30.00;18.65;;;4.20;99.90;;;;;;4937243;29;20038;-49
2023/12/18 05:03:57;;;;;;;28.35;18.38;;;4.20;99.90;;;;;;4935142;29;20056;-51
2023/12/18 05:06:26;;;;;;;26.70;17.42;;;4.20;99.90;;;;;;4936995;29;20037;-50
2023/12/18 05:08:52;;;;;;;23.05;17.60;;;4.20;99.90;;;;;;4937087;29;20040;-50
2023/12/18 05:11:19;;;;;;;28.00;19.00;;;4.20;99.90;;;;;;4887818;29;20047;-50
2023/12/18 05:13:45;;;;;;;35.50;19.38;;;4.20;99.90;;;;;;4936990;29;20095;-50
2023/12/18 05:16:12;;;;;;;33.00;19.60;;;4.20;99.90;;;;;;4937272;29;20027;-49
2023/12/18 05:18:38;;;;;;;30.38;17.83;;;4.20;99.90;;;;;;4936180;29;20040;-50
2023/12/18 05:21:04;;;;;;;26.75;18.55;;;4.20;99.90;;;;;;4937158;29;20083;-50
2023/12/18 05:23:30;;;;;;;32.30;17.05;;;4.20;99.90;;;;;;4887389;29;20044;-50
2023/12/18 05:25:56;;;;;;;29.25;18.67;;;4.20;99.90;;;;;;4936898;29;20483;-50
2023/12/18 05:28:22;;;;;;;31.48;17.73;;;;;;;;;;4938451;29;20032;-50
2023/12/18 05:30:49;;;;;;;28.65;16.55;;;;;;;;;;4955654;29;20031;-49
2023/12/18 05:33:15;;;;;;;24.67;16.60;;;;;;;;;;4955993;29;20039;-51
2023/12/18 05:35:41;;;;;;;32.55;18.38;;;;;;;;;;4955683;29;20467;-50
2023/12/18 05:38:07;;;;;;;29.23;18.52;;;;;;;;;;4955910;29;20031;-49
2023/12/18 05:40:34;;;;;;;34.75;19.15;;;;;;;;;;4955368;29;20032;-49
2023/12/18 05:43:00;;;;;;;28.00;17.38;;;;;;;;;;4955441;29;20031;-50
2023/12/18 05:45:26;;;;;;;22.55;16.27;;;;;;;;;;4955426;29;20031;-49
2023/12/18 05:47:53;;;;;;;34.92;18.75;;;;;;;;;;4955490;29;20031;-50
2023/12/18 05:50:19;;;;;;;30.63;19.13;;;;;;;;;;4955577;29;20058;-49
2023/12/18 05:52:45;;;;;;;29.20;17.90;;;;;;;;;;4954199;28;20038;-49
2023/12/18 05:55:11;;;;;;;28.83;19.60;;;;;;;;;;4938163;29;20031;-50
2023/12/18 05:57:37;;;;;;;32.65;21.00;;;4.50;99.90;;;;;;4921430;29;20487;-48
2023/12/18 06:00:05;;;;;;;34.35;20.50;;;4.50;99.90;;;;;;4955253;29;20054;-49
2023/12/18 06:02:31;;;;;;;42.90;26.98;;;4.50;99.90;;;;;;4954426;29;20078;-49
2023/12/18 06:04:57;;;;;;;48.28;33.70;;;4.30;99.90;;;;;;4936995;29;20110;-49
2023/12/18 06:07:23;;;;;;;34.03;23.92;;;4.20;99.90;;;;;;4955305;29;20130;-49
2023/12/18 06:09:48;;;;;;;31.65;22.15;;;3.90;99.90;;;;;;4933493;29;20051;-50
2023/12/18 06:12:14;;;;;;;32.28;21.88;;;;;;;;;;4935944;29;20028;-51
2023/12/18 06:14:40;;;;;;;31.10;21.48;;;3.60;99.90;;;;;;4935482;29;20083;-50
2023/12/18 06:17:06;;;;;;;29.95;21.27;;;3.80;99.90;;;;;;4954975;29;20027;-50
2023/12/18 06:19:32;;;;;;;30.58;20.70;;;3.70;99.90;;;;;;4954762;29;20028;-49
2023/12/18 06:21:57;;;;;;;30.95;21.17;;;3.80;99.90;;;;;;4954860;29;20031;-49
2023/12/18 06:24:23;;;;;;;38.20;26.13;;;3.80;99.90;;;;;;4954956;29;20035;-49
2023/12/18 06:26:49;;;;;;;37.55;25.83;;;3.70;99.90;;;;;;4954695;29;20027;-50
2023/12/18 06:29:15;;;;;;;40.97;23.30;;;3.60;99.90;;;;;;4936672;29;20046;-49
2023/12/18 06:31:40;;;;;;;136.73;104.18;;;3.20;99.90;;;;;;4954518;29;20031;-50
2023/12/18 06:34:06;;;;;;;122.07;91.18;;;2.90;99.90;;;;;;4954638;29;20074;-50
2023/12/18 06:36:32;;;;;;;102.18;77.43;;;;;;;;;;4954917;29;20207;-49
2023/12/18 06:38:59;;;;;;;89.95;64.45;;;;;;;;;;4954742;29;20108;-48
2023/12/18 06:41:24;;;;;;;73.65;57.97;;;3.70;99.90;;;;;;4954594;29;20114;-50
2023/12/18 06:43:50;;;;;;;63.63;49.95;;;3.80;99.90;;;;;;4954205;29;20159;-49
2023/12/18 06:46:16;;;;;;;72.57;51.33;;;3.90;99.90;;;;;;4954485;29;20038;-50
2023/12/18 06:48:42;;;;;;;47.00;36.63;;;4.10;99.90;;;;;;4954319;29;20027;-49
2023/12/18 06:51:10;;;;;;;53.72;41.33;;;;;;;;;;4954385;29;20035;-51
2023/12/18 06:53:37;;;;;;;89.85;68.68;;;;;;;;;;4952769;29;20039;-50
2023/12/18 06:56:03;;;;;;;114.70;96.82;;;;;;;;;;4951538;29;20031;-49
2023/12/18 06:58:29;;;;;;;50.10;41.20;;;;;;;;;;4935532;29;20046;-49
2023/12/18 07:00:55;;;;;;;68.00;48.97;;;10.10;99.90;;;;;;4953538;29;20178;-49
2023/12/18 07:03:21;;;;;;;52.13;36.80;;;;;;;;;;4953577;29;20606;-50
2023/12/18 07:05:47;;;;;;;42.47;30.90;;;13.50;95.50;;;;;;4952898;28;20031;-49
2023/12/18 07:08:13;;;;;;;46.22;31.95;;;;;;;;;;4954066;29;20537;-51
2023/12/18 07:10:39;;;;;;;47.60;36.22;;;15.90;91.00;;;;;;4953202;29;20027;-50
2023/12/18 07:13:05;;;;;;;67.10;49.40;;;16.70;89.30;;;;;;4952652;29;20035;-50
2023/12/18 07:15:31;;;;;;;60.38;44.28;;;16.20;84.60;;;;;;4952474;29;20098;-50
2023/12/18 07:18:01;;;;;;;46.70;39.42;;;;;;;;;;4950774;29;20051;-48
2023/12/18 07:20:26;;;;;;;41.97;34.17;;;17.90;84.60;;;;;;4953116;29;20031;-48
2023/12/18 07:22:53;;;;;;;41.85;34.97;;;;;;;;;;4953120;29;20039;-48
2023/12/18 07:25:19;;;;;;;40.35;29.42;;;;;;;;;;4951280;29;20534;-49
2023/12/18 07:27:45;;;;;;;39.15;31.00;;;20.50;94.90;;;;;;4953117;29;20042;-49
2023/12/18 07:30:12;;;;;;;64.72;43.72;;;21.20;90.90;;;;;;4953059;29;20038;-47
2023/12/18 07:32:38;;;;;;;54.67;39.88;;;21.30;77.60;;;;;;4903109;29;20114;-48
2023/12/18 07:35:05;;;;;;;48.42;34.92;;;;;;;;;;4952986;29;20114;-47
2023/12/18 07:37:31;;;;;;;43.95;38.05;;;22.20;74.20;;;;;;4950630;29;20043;-49
2023/12/18 07:39:58;;;;;;;41.90;36.05;;;21.40;73.60;;;;;;4953466;29;20041;-48
2023/12/18 07:42:25;;;;;;;38.22;31.38;;;;;;;;;;4910767;29;20075;-47
2023/12/18 07:44:52;;;;;;;52.85;41.42;;;;;;;;;;4911357;29;20761;-47
2023/12/18 07:47:18;;;;;;;70.50;48.65;;;;;;;;;;4912420;29;20047;-47
2023/12/18 07:49:44;;;;;;;60.80;44.53;;;23.30;84.70;;;;;;4912503;29;20111;-48
2023/12/18 07:52:10;;;;;;;48.30;39.92;;;;;;;;;;4911583;29;20515;-49
2023/12/18 07:54:36;;;;;;;52.60;43.10;;;24.20;70.40;;;;;;4912397;29;20039;-50
2023/12/18 07:57:04;;;;;;;50.05;41.47;;;23.70;70.20;;;;;;4907503;29;20036;-49
2023/12/18 07:59:30;;;;;;;55.42;49.80;;;;;;;;;;4882383;29;20062;-48
2023/12/18 08:01:56;;;;;;;28.75;25.75;;;;;;;;;;4912036;29;20055;-48
2023/12/18 08:04:22;;;;;;;28.27;25.25;;;20.80;80.40;;;;;;4912386;29;20044;-48
2023/12/18 08:06:51;;;;;;;27.10;24.30;;;21.40;71.60;;;;;;4910953;29;20031;-49
2023/12/18 08:09:17;;;;;;;24.52;21.90;;;20.80;72.20;;;;;;4910927;29;20036;-48
2023/12/18 08:11:42;;;;;;;25.67;23.00;;;20.50;77.20;;;;;;4912566;29;20029;-49
2023/12/18 08:14:09;;;;;;;27.13;24.48;;;;;;;;;;4945246;29;20069;-48
2023/12/18 08:16:35;;;;;;;26.00;23.20;;;;;;;;;;4931951;29;20043;-48
2023/12/18 08:19:01;;;;;;;26.90;23.45;;;23.70;88.40;;;;;;4935394;29;20047;-49
2023/12/18 08:21:28;;;;;;;29.60;26.50;;;;;;;;;;4935652;29;20035;-50
2023/12/18 08:23:54;;;;;;;31.02;27.75;;;23.80;75.70;;;;;;4935473;29;20070;-49
2023/12/18 08:26:20;;;;;;;34.38;30.67;;;;;;;;;;4935416;29;20484;-49
2023/12/18 08:28:46;;;;;;;33.83;30.33;;;24.90;68.00;;;;;;4919463;29;20038;-49
2023/12/18 08:31:12;;;;;;;39.92;32.17;;;;;;;;;;4919277;29;20043;-50
2023/12/18 08:33:41;;;;;;;43.20;35.70;;;25.40;68.60;;;;;;4935328;29;20252;-50
2023/12/18 08:36:07;;;;;;;46.22;37.42;;;;;;;;;;4935357;29;20039;-50
2023/12/18 08:38:33;;;;;;;46.45;41.40;;;26.10;66.90;;;;;;4935392;29;20031;-48
2023/12/18 08:40:59;;;;;;;43.97;38.97;;;25.20;67.80;;;;;;4935187;29;20067;-48
2023/12/18 08:43:25;;;;;;;44.10;39.13;;;25.90;67.20;;;;;;4935040;29;20036;-49
2023/12/18 08:45:50;;;;;;;53.17;47.65;;;25.40;67.20;;;;;;4935038;29;20123;-48
2023/12/18 08:48:16;;;;;;;40.05;35.88;;;25.40;67.00;;;;;;4935166;29;20078;-48
2023/12/18 08:50:43;;;;;;;41.83;37.50;;;;;;;;;;4956822;29;20090;-49
2023/12/18 08:53:08;;;;;;;41.70;36.45;;;25.40;83.60;;;;;;4956290;29;20077;-48
2023/12/18 08:55:38;;;;;;;41.40;37.17;;;25.70;66.60;;;;;;4937812;29;20039;-50
2023/12/18 08:58:05;;;;;;;45.45;40.75;;;;;;;;;;4938783;29;20043;-50
2023/12/18 09:00:30;;;;;;;46.80;42.22;;;26.60;66.00;;;;;;4956071;29;20059;-49
2023/12/18 09:02:58;;;;;;;41.92;37.80;;;24.70;65.90;;;;;;4956306;29;20085;-49
2023/12/18 09:05:24;;;;;;;41.30;37.15;;;25.40;67.20;;;;;;4956361;29;20035;-50
2023/12/18 09:07:50;;;;;;;33.90;30.42;;;25.80;67.10;;;;;;4956304;29;20500;-49
2023/12/18 09:10:17;;;;;;;32.45;29.35;;;25.90;66.70;;;;;;4955931;29;20553;-48
2023/12/18 09:12:44;;;;;;;34.45;30.90;;;25.30;66.00;;;;;;4956081;29;20035;-50
2023/12/18 09:15:10;;;;;;;33.90;30.20;;;25.20;67.30;;;;;;4937985;29;20121;-48
2023/12/18 09:17:38;;;;;;;30.48;26.17;;;25.30;66.60;;;;;;4954605;29;20125;-49
2023/12/18 09:20:04;;;;;;;34.05;27.33;;;;;;;;;;4955936;29;20035;-49
2023/12/18 09:22:30;;;;;;;26.92;23.40;;;25.80;66.30;;;;;;4955751;29;20406;-48
2023/12/18 09:24:56;;;;;;;114.18;84.75;;;26.00;66.60;;;;;;4953742;29;20047;-48
2023/12/18 09:27:21;;;;;;;38.92;34.72;;;25.90;66.30;;;;;;4955343;28;20039;-49
2023/12/18 09:29:47;;;;;;;36.33;31.85;;;26.20;65.90;;;;;;4954396;29;20035;-48
2023/12/18 09:32:13;;;;;;;28.73;25.88;;;;;;;;;;4952900;29;20047;-48
2023/12/18 09:34:39;;;;;;;26.13;23.42;;;;;;;;;;4952905;29;20498;-49
2023/12/18 09:37:05;;;;;;;31.67;28.38;;;;;;;;;;4955535;29;20110;-48
2023/12/18 09:39:31;;;;;;;24.58;21.92;;;23.70;85.40;;;;;;4905851;29;20035;-49
2023/12/18 09:42:05;;;;;;;22.35;19.92;;;;;;;;;;4955926;29;20158;-49
2023/12/18 09:44:32;;;;;;;24.75;22.05;;;;;;;;;;4955379;29;20491;-49
2023/12/18 09:47:00;;;;;;;40.58;36.22;;;24.90;90.20;;;;;;4954738;29;20031;-48
2023/12/18 09:49:26;;;;;;;27.85;25.00;;;24.70;67.40;;;;;;4882965;29;20036;-48
2023/12/18 09:52:05;;;;;;;27.27;23.90;;;24.60;68.00;;;;;;4899997;29;20133;-48
2023/12/18 09:54:31;;;;;;;31.92;27.95;;;24.20;67.40;;;;;;4931258;29;20110;-48
2023/12/18 09:56:59;;;;;;;221.18;136.85;;;24.80;68.00;;;;;;4893674;29;20144;-49
2023/12/18 09:59:25;;;;;;;116.57;75.53;;;25.30;67.30;;;;;;4911516;29;20447;-50
2023/12/18 10:01:53;;;;;;;97.50;66.20;;;25.40;67.40;;;;;;4900228;29;20042;-49
2023/12/18 10:04:19;;;;;;;32.83;27.95;;;25.60;67.50;;;;;;4932791;29;20056;-49
2023/12/18 10:06:45;;;;;;;70.70;48.17;;;25.20;67.20;;;;;;4932224;29;20031;-50
2023/12/18 10:09:15;;;;;;;97.45;75.05;;;25.20;67.80;;;;;;4932516;29;20038;-49
2023/12/18 10:11:45;;;;;;;41.85;37.15;;;;;;;;;;4886976;29;20043;-50
2023/12/18 10:14:15;;;;;;;30.77;27.48;;;25.60;66.90;;;;;;4932269;29;20146;-48
2023/12/18 10:16:41;;;;;;;31.85;28.17;;;25.50;67.90;;;;;;4931973;29;20039;-49
2023/12/18 10:19:08;;;;;;;31.17;27.77;;;25.20;68.00;;;;;;4933438;29;20612;-50
2023/12/18 10:21:34;;;;;;;31.73;28.23;;;24.90;67.90;;;;;;4953852;29;20066;-49
2023/12/18 10:24:01;;;;;;;28.10;24.85;;;24.80;68.20;;;;;;4954554;29;20071;-49
2023/12/18 10:26:28;;;;;;;25.55;22.88;;;24.50;68.40;;;;;;4954272;29;20471;-49
2023/12/18 10:28:54;;;;;;;25.77;23.08;;;;;;;;;;4953876;29;20494;-49
2023/12/18 10:31:21;;;;;;;26.23;23.48;;;;;;;;;;4954428;29;20023;-48
2023/12/18 10:33:47;;;;;;;25.25;22.65;;;24.40;93.50;;;;;;4953595;29;20041;-49
2023/12/18 10:36:15;;;;;;;22.90;20.55;;;24.50;69.10;;;;;;4951924;29;20122;-48
2023/12/18 10:38:46;;;;;;;22.38;20.02;;;;;;;;;;4952277;28;20051;-49
2023/12/18 10:41:13;;;;;;;25.30;22.80;;;24.40;97.50;;;;;;4953324;29;20027;-48
2023/12/18 10:43:40;;;;;;;19.95;17.70;;;24.40;69.00;;;;;;4954223;29;20099;-49
2023/12/18 10:46:06;;;;;;;20.25;18.25;;;;;;;;;;4952186;29;20032;-49
2023/12/18 10:48:33;;;;;;;18.83;16.92;;;24.30;96.30;;;;;;4954370;29;20035;-49
2023/12/18 10:51:00;;;;;;;18.83;16.95;;;;;;;;;;4952127;29;20448;-49
2023/12/18 10:53:27;;;;;;;18.77;16.83;;;24.30;77.00;;;;;;4954588;29;20031;-49
2023/12/18 10:55:56;;;;;;;18.70;16.38;;;24.40;69.00;;;;;;4954118;29;20054;-49
2023/12/18 10:58:22;;;;;;;19.05;17.05;;;24.30;68.90;;;;;;4954091;29;20031;-49
2023/12/18 11:00:51;;;;;;;19.30;17.23;;;23.60;68.30;;;;;;4953919;29;20039;-49
2023/12/18 11:03:19;;;;;;;18.77;16.77;;;23.50;69.10;;;;;;4953550;29;20042;-49
2023/12/18 11:05:47;;;;;;;18.92;16.92;;;;;;;;;;4953959;29;20089;-49
2023/12/18 11:08:13;;;;;;;16.77;15.07;;;23.00;69.10;;;;;;4954232;29;20042;-49
2023/12/18 11:10:40;;;;;;;17.15;15.40;;;22.90;68.40;;;;;;4904158;29;20043;-49
2023/12/18 11:13:21;;;;;;;27.02;24.08;;;22.30;68.20;;;;;;4954076;29;20065;-49
2023/12/18 11:15:55;;;;;;;32.60;29.03;;;;;;;;;;4953765;29;20495;-48
2023/12/18 11:18:23;;;;;;;17.85;15.95;;;22.00;92.80;;;;;;4919703;29;20487;-49
2023/12/18 11:20:51;;;;;;;15.48;13.85;;;;;;;;;;4952564;29;20035;-52
2023/12/18 11:23:17;;;;;;;16.65;14.45;;;22.40;82.00;;;;;;4948910;29;20031;-51
2023/12/18 11:25:47;;;;;;;15.48;13.88;;;22.20;68.50;;;;;;4952522;29;20093;-50
2023/12/18 11:28:14;;;;;;;12.18;10.88;;;;;;;;;;4953421;29;20023;-49
2023/12/18 11:30:42;;;;;;;13.80;11.07;;;;;;;;;;4950919;29;20143;-51
2023/12/18 11:33:10;;;;;;;14.02;12.63;;;21.50;82.30;;;;;;4952572;29;20039;-49
2023/12/18 11:35:38;;;;;;;13.38;11.98;;;22.00;68.30;;;;;;4952900;29;20484;-51
2023/12/18 11:38:08;;;;;;;13.48;12.07;;;22.20;68.40;;;;;;4953169;29;20407;-49
2023/12/18 11:40:35;;;;;;;14.18;12.73;;;;;;;;;;4952882;29;20104;-50
2023/12/18 11:43:02;;;;;;;13.07;11.70;;;22.00;84.80;;;;;;4951922;29;20078;-50
2023/12/18 11:45:28;;;;;;;14.98;13.38;;;22.10;68.70;;;;;;4951281;29;20046;-50
2023/12/18 11:47:57;;;;;;;15.93;14.25;;;;;;;;;;4953340;29;20039;-50
2023/12/18 11:50:27;;;;;;;19.63;16.00;;;;;;;;;;4953689;28;20046;-50
2023/12/18 11:52:56;;;;;;;18.30;14.90;;;21.30;98.40;;;;;;4955305;29;20451;-50
2023/12/18 11:55:38;;;;;;;18.23;16.33;;;;;;;;;;4957745;29;20089;-50
2023/12/18 11:58:04;;;;;;;17.80;15.52;;;21.50;93.90;;;;;;4957621;29;20110;-50
2023/12/18 12:00:30;;;;;;;21.58;17.38;;;21.30;71.20;;;;;;4957302;29;20179;-50
2023/12/18 12:02:58;;;;;;;18.25;15.50;;;20.70;71.70;;;;;;4957100;29;20529;-50
2023/12/18 12:05:27;;;;;;;18.80;16.73;;;20.60;71.90;;;;;;4957480;29;20043;-50
2023/12/18 12:07:54;;;;;;;19.75;17.65;;;20.10;72.60;;;;;;4957460;29;20442;-49
2023/12/18 12:10:20;;;;;;;24.25;20.13;;;20.70;73.60;;;;;;4957569;29;20086;-50
2023/12/18 12:12:53;;;;;;;21.55;17.83;;;20.30;73.30;;;;;;4957607;29;20023;-49
2023/12/18 12:15:21;;;;;;;22.80;19.55;;;;;;;;;;4957453;29;20122;-50
2023/12/18 12:17:48;;;;;;;23.75;18.25;;;;;;;;;;4956693;29;20513;-49
2023/12/18 12:20:20;;;;;;;20.95;17.20;;;19.10;77.10;;;;;;4957307;29;20039;-50
2023/12/18 12:22:46;;;;;;;;;;;;;;;;;;4957342;29;20534;-50
2023/12/18 12:25:12;;;;;;;21.27;18.50;;;18.50;78.20;;;;;;4940518;29;19907;-52
2023/12/18 12:27:37;;;;;;;20.60;17.27;;;18.00;75.20;;;;;;4888501;29;20046;-50
2023/12/18 12:30:05;;;;;;;21.52;18.42;;;18.00;75.20;;;;;;4937835;29;20027;-48
2023/12/18 12:32:31;;;;;;;22.35;19.08;;;18.10;75.80;;;;;;4872549;29;20063;-50
2023/12/18 12:34:56;;;;;;;24.73;18.33;;;18.00;75.40;;;;;;4956789;29;20368;-50
2023/12/18 12:37:22;;;;;;;22.23;17.25;;;18.30;75.80;;;;;;4954550;29;20050;-49
2023/12/18 12:40:02;;;;;;;22.33;18.40;;;18.70;75.80;;;;;;4956696;29;20055;-50
2023/12/18 12:42:30;;;;;;;23.33;17.88;;;;;;;;;;4915797;29;20048;-50
2023/12/18 12:44:55;;;;;;;22.15;18.42;;;18.10;75.20;;;;;;4915940;29;20051;-49
2023/12/18 12:47:21;;;;;;;23.70;19.13;;;17.80;76.00;;;;;;4916040;29;20032;-49
2023/12/18 12:49:51;;;;;;;25.58;21.05;;;17.80;76.10;;;;;;4900197;29;20040;-50
2023/12/18 12:52:17;;;;;;;108.30;64.93;;;;;;;;;;4915939;29;20640;-50